createdAt,value
2023-01-07T00:00:06.440Z,7.00
2023-01-07T00:02:34.542Z,7.00
2023-01-07T00:05:04.064Z,7.00
2023-01-07T00:07:32.134Z,7.00
2023-01-07T00:10:00.238Z,7.00
2023-01-07T00:12:28.220Z,7.10
2023-01-07T00:14:56.271Z,7.00
2023-01-07T00:17:24.354Z,7.10
2023-01-07T00:19:52.449Z,7.10
2023-01-07T00:22:21.843Z,7.10
2023-01-07T00:24:49.885Z,7.10
2023-01-07T00:27:18.025Z,7.10
2023-01-07T00:29:46.075Z,7.10
2023-01-07T00:32:14.122Z,7.10
2023-01-07T00:34:45.222Z,7.10
2023-01-07T00:37:32.789Z,7.10
2023-01-07T00:40:02.359Z,7.10
2023-01-07T00:42:47.638Z,7.10
2023-01-07T00:45:15.741Z,7.10
2023-01-07T00:47:43.955Z,7.10
2023-01-07T00:50:11.988Z,7.20
2023-01-07T00:52:40.037Z,7.20
2023-01-07T00:55:11.138Z,7.20
2023-01-07T00:57:39.178Z,7.20
2023-01-07T01:00:08.513Z,7.20
2023-01-07T01:02:36.608Z,7.20
2023-01-07T01:05:06.214Z,7.20
2023-01-07T01:07:34.863Z,7.20
2023-01-07T01:10:06.988Z,7.20
2023-01-07T01:12:37.124Z,7.20
2023-01-07T01:15:07.001Z,7.20
2023-01-07T01:17:35.055Z,7.20
2023-01-07T01:20:03.453Z,7.20
2023-01-07T01:22:31.494Z,7.20
2023-01-07T01:24:59.494Z,7.20
2023-01-07T01:27:27.468Z,7.20
2023-01-07T01:29:56.810Z,7.20
2023-01-07T01:32:24.881Z,7.10
2023-01-07T01:34:52.991Z,7.10
2023-01-07T01:37:21.043Z,7.10
2023-01-07T01:39:51.540Z,7.10
2023-01-07T01:42:23.663Z,7.10
2023-01-07T01:44:53.269Z,7.10
2023-01-07T01:47:30.649Z,7.10
2023-01-07T01:50:02.343Z,7.10
2023-01-07T01:52:35.919Z,7.00
2023-01-07T01:55:08.299Z,7.00
2023-01-07T01:57:38.238Z,7.00
2023-01-07T02:00:10.622Z,7.00
2023-01-07T02:02:47.604Z,7.00
2023-01-07T02:05:16.566Z,7.00
2023-01-07T02:07:44.597Z,7.00
2023-01-07T02:10:16.002Z,7.00
2023-01-07T02:13:08.217Z,7.00
2023-01-07T02:15:45.979Z,6.90
2023-01-07T02:18:30.068Z,6.90
2023-01-07T02:21:07.316Z,6.90
2023-01-07T02:24:13.938Z,6.90
2023-01-07T02:27:10.379Z,6.90
2023-01-07T02:30:20.294Z,6.90
2023-01-07T02:33:09.531Z,6.90
2023-01-07T02:35:53.149Z,6.90
2023-01-07T02:38:28.217Z,6.90
2023-01-07T02:41:04.374Z,6.90
2023-01-07T02:43:40.981Z,6.90
2023-01-07T02:46:15.699Z,6.90
2023-01-07T02:48:46.237Z,6.90
2023-01-07T02:51:14.396Z,6.80
2023-01-07T02:53:46.164Z,6.90
2023-01-07T02:56:26.512Z,6.90
2023-01-07T02:59:18.696Z,6.80
2023-01-07T03:02:16.219Z,6.80
2023-01-07T03:05:05.410Z,6.80
2023-01-07T03:07:46.754Z,6.80
2023-01-07T03:10:22.636Z,6.80
2023-01-07T03:12:55.398Z,6.80
2023-01-07T03:15:29.244Z,6.80
2023-01-07T03:18:02.702Z,6.80
2023-01-07T03:20:35.359Z,6.80
2023-01-07T03:23:07.670Z,6.80
2023-01-07T03:25:40.339Z,6.80
2023-01-07T03:28:10.622Z,6.80
2023-01-07T03:30:39.586Z,6.70
2023-01-07T03:33:13.403Z,6.80
2023-01-07T03:35:46.219Z,6.70
2023-01-07T03:38:16.010Z,6.70
2023-01-07T03:40:44.249Z,6.70
2023-01-07T03:43:13.444Z,6.70
2023-01-07T03:45:42.546Z,6.70
2023-01-07T03:48:10.597Z,6.60
2023-01-07T03:50:38.644Z,6.60
2023-01-07T03:53:08.505Z,6.60
2023-01-07T03:55:36.796Z,6.60
2023-01-07T03:58:04.791Z,6.50
2023-01-07T04:00:32.903Z,6.50
2023-01-07T04:03:00.990Z,6.50
2023-01-07T04:05:29.081Z,6.40
2023-01-07T04:07:57.049Z,6.40
2023-01-07T04:10:26.471Z,6.30
2023-01-07T04:12:54.470Z,6.30
2023-01-07T04:15:22.527Z,6.30
2023-01-07T04:17:50.742Z,6.30
2023-01-07T04:20:25.031Z,6.20
2023-01-07T04:22:53.049Z,6.20
2023-01-07T04:25:21.071Z,6.10
2023-01-07T04:27:50.646Z,6.10
2023-01-07T04:30:18.832Z,6.10
2023-01-07T04:32:46.844Z,6.00
2023-01-07T04:35:14.807Z,6.00
2023-01-07T04:37:42.857Z,5.90
2023-01-07T04:40:11.790Z,5.90
2023-01-07T04:42:39.774Z,5.90
2023-01-07T04:45:10.375Z,5.90
2023-01-07T04:47:38.437Z,5.80
2023-01-07T04:50:07.333Z,5.80
2023-01-07T04:52:35.381Z,5.80
